sensor_id;sensor_type;location;lat;lon;timestamp;temperature;humidity
8220;DHT22;4151;51.110;7.020;2023-05-14T00:01:23;10.50;99.90
8220;DHT22;4151;51.110;7.020;2023-05-14T00:03:49;10.40;99.90
8220;DHT22;4151;51.110;7.020;2023-05-14T00:06:15;10.30;99.90
8220;DHT22;4151;51.110;7.020;2023-05-14T00:08:40;10.40;99.90
8220;DHT22;4151;51.110;7.020;2023-05-14T00:11:06;10.30;99.90
8220;DHT22;4151;51.110;7.020;2023-05-14T00:13:33;10.40;99.90
8220;DHT22;4151;51.110;7.020;2023-05-14T00:15:59;10.30;99.90
8220;DHT22;4151;51.110;7.020;2023-05-14T00:18:24;10.30;99.90
8220;DHT22;4151;51.110;7.020;2023-05-14T00:20:50;10.30;99.90
8220;DHT22;4151;51.110;7.020;2023-05-14T00:23:19;10.20;99.90
8220;DHT22;4151;51.110;7.020;2023-05-14T00:25:45;10.20;99.90
8220;DHT22;4151;51.110;7.020;2023-05-14T00:28:11;10.20;99.90
8220;DHT22;4151;51.110;7.020;2023-05-14T00:30:36;10.20;99.90
8220;DHT22;4151;51.110;7.020;2023-05-14T00:33:02;10.10;99.90
8220;DHT22;4151;51.110;7.020;2023-05-14T00:35:28;10.00;99.90
8220;DHT22;4151;51.110;7.020;2023-05-14T00:37:53;9.90;99.90
8220;DHT22;4151;51.110;7.020;2023-05-14T00:40:19;9.90;99.90
8220;DHT22;4151;51.110;7.020;2023-05-14T00:42:46;9.80;99.90
8220;DHT22;4151;51.110;7.020;2023-05-14T00:45:12;9.80;99.90
8220;DHT22;4151;51.110;7.020;2023-05-14T00:47:37;9.80;99.90
8220;DHT22;4151;51.110;7.020;2023-05-14T00:50:04;9.90;99.90
8220;DHT22;4151;51.110;7.020;2023-05-14T00:52:30;9.90;99.90
8220;DHT22;4151;51.110;7.020;2023-05-14T00:54:56;9.80;99.90
8220;DHT22;4151;51.110;7.020;2023-05-14T00:57:23;9.80;99.90
8220;DHT22;4151;51.110;7.020;2023-05-14T00:59:48;9.80;99.90
8220;DHT22;4151;51.110;7.020;2023-05-14T01:02:15;9.80;99.90
8220;DHT22;4151;51.110;7.020;2023-05-14T01:04:40;9.70;99.90
8220;DHT22;4151;51.110;7.020;2023-05-14T01:10:02;9.70;99.90
8220;DHT22;4151;51.110;7.020;2023-05-14T01:12:55;9.70;99.90
8220;DHT22;4151;51.110;7.020;2023-05-14T01:15:30;9.70;99.90
8220;DHT22;4151;51.110;7.020;2023-05-14T01:18:07;9.60;99.90
8220;DHT22;4151;51.110;7.020;2023-05-14T01:20:33;9.60;99.90
8220;DHT22;4151;51.110;7.020;2023-05-14T01:22:58;9.60;99.90
8220;DHT22;4151;51.110;7.020;2023-05-14T01:25:25;9.50;99.90
8220;DHT22;4151;51.110;7.020;2023-05-14T01:30:36;9.60;99.90
8220;DHT22;4151;51.110;7.020;2023-05-14T01:33:10;9.60;99.90
8220;DHT22;4151;51.110;7.020;2023-05-14T01:35:36;9.60;99.90
8220;DHT22;4151;51.110;7.020;2023-05-14T01:38:10;9.50;99.90
8220;DHT22;4151;51.110;7.020;2023-05-14T01:40:36;9.40;99.90
8220;DHT22;4151;51.110;7.020;2023-05-14T01:43:03;9.50;99.90
8220;DHT22;4151;51.110;7.020;2023-05-14T01:45:29;9.40;99.90
8220;DHT22;4151;51.110;7.020;2023-05-14T01:47:55;9.50;99.90
8220;DHT22;4151;51.110;7.020;2023-05-14T01:50:21;9.40;99.90
8220;DHT22;4151;51.110;7.020;2023-05-14T01:52:47;9.50;99.90
8220;DHT22;4151;51.110;7.020;2023-05-14T01:55:13;9.50;99.90
8220;DHT22;4151;51.110;7.020;2023-05-14T01:57:39;9.40;99.90
8220;DHT22;4151;51.110;7.020;2023-05-14T02:00:05;9.40;99.90
8220;DHT22;4151;51.110;7.020;2023-05-14T02:02:31;9.30;99.90
8220;DHT22;4151;51.110;7.020;2023-05-14T02:04:56;9.30;99.90
8220;DHT22;4151;51.110;7.020;2023-05-14T02:07:22;9.20;99.90
8220;DHT22;4151;51.110;7.020;2023-05-14T02:09:47;9.20;99.90
8220;DHT22;4151;51.110;7.020;2023-05-14T02:12:13;9.20;99.90
8220;DHT22;4151;51.110;7.020;2023-05-14T02:14:38;9.20;99.90
8220;DHT22;4151;51.110;7.020;2023-05-14T02:17:04;9.20;99.90
8220;DHT22;4151;51.110;7.020;2023-05-14T02:19:30;9.20;99.90
8220;DHT22;4151;51.110;7.020;2023-05-14T02:21:55;9.10;99.90
8220;DHT22;4151;51.110;7.020;2023-05-14T02:24:21;9.10;99.90
8220;DHT22;4151;51.110;7.020;2023-05-14T02:26:46;9.10;99.90
8220;DHT22;4151;51.110;7.020;2023-05-14T02:29:12;9.00;99.90
8220;DHT22;4151;51.110;7.020;2023-05-14T02:31:38;9.00;99.90
8220;DHT22;4151;51.110;7.020;2023-05-14T02:34:04;9.00;99.90
8220;DHT22;4151;51.110;7.020;2023-05-14T02:36:31;9.00;99.90
8220;DHT22;4151;51.110;7.020;2023-05-14T02:38:58;8.90;99.90
8220;DHT22;4151;51.110;7.020;2023-05-14T02:41:24;8.80;99.90
8220;DHT22;4151;51.110;7.020;2023-05-14T02:43:50;8.70;99.90
8220;DHT22;4151;51.110;7.020;2023-05-14T02:46:16;8.70;99.90
8220;DHT22;4151;51.110;7.020;2023-05-14T02:48:41;8.70;99.90
8220;DHT22;4151;51.110;7.020;2023-05-14T02:51:07;8.70;99.90
8220;DHT22;4151;51.110;7.020;2023-05-14T02:53:32;8.70;99.90
8220;DHT22;4151;51.110;7.020;2023-05-14T02:55:58;8.70;99.90
8220;DHT22;4151;51.110;7.020;2023-05-14T02:58:24;8.60;99.90
8220;DHT22;4151;51.110;7.020;2023-05-14T03:00:50;8.60;99.90
8220;DHT22;4151;51.110;7.020;2023-05-14T03:03:15;8.50;99.90
8220;DHT22;4151;51.110;7.020;2023-05-14T03:05:41;8.50;99.90
8220;DHT22;4151;51.110;7.020;2023-05-14T03:08:06;8.50;99.90
8220;DHT22;4151;51.110;7.020;2023-05-14T03:10:32;8.50;99.90
8220;DHT22;4151;51.110;7.020;2023-05-14T03:12:57;8.50;99.90
8220;DHT22;4151;51.110;7.020;2023-05-14T03:15:23;8.50;99.90
8220;DHT22;4151;51.110;7.020;2023-05-14T03:17:48;8.50;99.90
8220;DHT22;4151;51.110;7.020;2023-05-14T03:20:14;8.50;99.90
8220;DHT22;4151;51.110;7.020;2023-05-14T03:22:40;8.50;99.90
8220;DHT22;4151;51.110;7.020;2023-05-14T03:25:05;8.40;99.90
8220;DHT22;4151;51.110;7.020;2023-05-14T03:27:31;8.40;99.90
8220;DHT22;4151;51.110;7.020;2023-05-14T03:29:57;8.40;99.90
8220;DHT22;4151;51.110;7.020;2023-05-14T03:32:23;8.30;99.90
8220;DHT22;4151;51.110;7.020;2023-05-14T03:34:49;8.30;99.90
8220;DHT22;4151;51.110;7.020;2023-05-14T03:37:14;8.30;99.90
8220;DHT22;4151;51.110;7.020;2023-05-14T03:39:40;8.30;99.90
8220;DHT22;4151;51.110;7.020;2023-05-14T03:42:05;8.20;99.90
8220;DHT22;4151;51.110;7.020;2023-05-14T03:44:31;8.20;99.90
8220;DHT22;4151;51.110;7.020;2023-05-14T03:46:56;8.30;99.90
8220;DHT22;4151;51.110;7.020;2023-05-14T03:49:22;8.30;99.90
8220;DHT22;4151;51.110;7.020;2023-05-14T03:51:48;8.20;99.90
8220;DHT22;4151;51.110;7.020;2023-05-14T03:54:13;8.10;99.90
8220;DHT22;4151;51.110;7.020;2023-05-14T03:56:39;8.10;99.90
8220;DHT22;4151;51.110;7.020;2023-05-14T03:59:04;8.20;99.90
8220;DHT22;4151;51.110;7.020;2023-05-14T04:01:30;8.20;99.90
8220;DHT22;4151;51.110;7.020;2023-05-14T04:03:55;8.20;99.90
8220;DHT22;4151;51.110;7.020;2023-05-14T04:06:21;8.20;99.90
8220;DHT22;4151;51.110;7.020;2023-05-14T04:08:46;8.20;99.90
8220;DHT22;4151;51.110;7.020;2023-05-14T04:11:12;8.30;99.90
8220;DHT22;4151;51.110;7.020;2023-05-14T04:13:37;8.30;99.90
8220;DHT22;4151;51.110;7.020;2023-05-14T04:16:03;8.30;99.90
8220;DHT22;4151;51.110;7.020;2023-05-14T04:18:29;8.30;99.90
8220;DHT22;4151;51.110;7.020;2023-05-14T04:20:55;8.30;99.90
8220;DHT22;4151;51.110;7.020;2023-05-14T04:23:20;8.40;99.90
8220;DHT22;4151;51.110;7.020;2023-05-14T04:25:46;8.40;99.90
8220;DHT22;4151;51.110;7.020;2023-05-14T04:28:11;8.40;99.90
8220;DHT22;4151;51.110;7.020;2023-05-14T04:39:38;8.40;99.90
8220;DHT22;4151;51.110;7.020;2023-05-14T04:42:04;8.40;99.90
8220;DHT22;4151;51.110;7.020;2023-05-14T04:44:32;8.40;99.90
8220;DHT22;4151;51.110;7.020;2023-05-14T04:46:57;8.30;99.90
8220;DHT22;4151;51.110;7.020;2023-05-14T04:49:23;8.20;99.90
8220;DHT22;4151;51.110;7.020;2023-05-14T04:51:48;8.30;99.90
8220;DHT22;4151;51.110;7.020;2023-05-14T04:54:14;8.40;99.90
8220;DHT22;4151;51.110;7.020;2023-05-14T04:56:39;8.40;99.90
8220;DHT22;4151;51.110;7.020;2023-05-14T04:59:05;8.50;99.90
8220;DHT22;4151;51.110;7.020;2023-05-14T05:01:31;8.50;99.90
8220;DHT22;4151;51.110;7.020;2023-05-14T05:03:57;8.60;99.90
8220;DHT22;4151;51.110;7.020;2023-05-14T05:06:22;8.70;99.90
8220;DHT22;4151;51.110;7.020;2023-05-14T05:08:48;8.70;99.90
8220;DHT22;4151;51.110;7.020;2023-05-14T05:11:13;8.70;99.90
8220;DHT22;4151;51.110;7.020;2023-05-14T05:13:39;8.70;99.90
8220;DHT22;4151;51.110;7.020;2023-05-14T05:16:05;8.90;99.90
8220;DHT22;4151;51.110;7.020;2023-05-14T05:18:30;9.00;99.90
8220;DHT22;4151;51.110;7.020;2023-05-14T05:20:56;9.00;99.90
8220;DHT22;4151;51.110;7.020;2023-05-14T05:23:22;9.10;99.90
8220;DHT22;4151;51.110;7.020;2023-05-14T05:25:48;9.20;99.90
8220;DHT22;4151;51.110;7.020;2023-05-14T05:28:14;9.30;99.90
8220;DHT22;4151;51.110;7.020;2023-05-14T05:30:40;9.40;99.90
8220;DHT22;4151;51.110;7.020;2023-05-14T05:33:06;9.50;99.90
8220;DHT22;4151;51.110;7.020;2023-05-14T05:35:31;9.50;99.90
8220;DHT22;4151;51.110;7.020;2023-05-14T05:37:57;9.70;99.90
8220;DHT22;4151;51.110;7.020;2023-05-14T05:40:23;9.80;99.90
8220;DHT22;4151;51.110;7.020;2023-05-14T05:42:48;10.00;99.90
8220;DHT22;4151;51.110;7.020;2023-05-14T05:45:14;10.10;99.90
8220;DHT22;4151;51.110;7.020;2023-05-14T05:47:39;10.30;99.90
8220;DHT22;4151;51.110;7.020;2023-05-14T05:50:05;10.40;99.90
8220;DHT22;4151;51.110;7.020;2023-05-14T05:52:31;10.50;99.90
8220;DHT22;4151;51.110;7.020;2023-05-14T05:54:57;10.60;99.90
8220;DHT22;4151;51.110;7.020;2023-05-14T05:57:23;10.70;99.90
8220;DHT22;4151;51.110;7.020;2023-05-14T05:59:51;10.70;99.90
8220;DHT22;4151;51.110;7.020;2023-05-14T06:02:17;10.80;99.90
8220;DHT22;4151;51.110;7.020;2023-05-14T06:04:43;10.90;99.90
8220;DHT22;4151;51.110;7.020;2023-05-14T06:07:08;11.00;99.90
8220;DHT22;4151;51.110;7.020;2023-05-14T06:09:34;11.10;99.90
8220;DHT22;4151;51.110;7.020;2023-05-14T06:11:59;11.10;99.90
8220;DHT22;4151;51.110;7.020;2023-05-14T06:14:25;11.30;99.90
8220;DHT22;4151;51.110;7.020;2023-05-14T06:16:50;11.40;99.90
8220;DHT22;4151;51.110;7.020;2023-05-14T06:19:16;11.50;99.90
8220;DHT22;4151;51.110;7.020;2023-05-14T06:21:42;11.60;99.90
8220;DHT22;4151;51.110;7.020;2023-05-14T06:24:08;11.70;99.90
8220;DHT22;4151;51.110;7.020;2023-05-14T06:26:33;11.80;99.90
8220;DHT22;4151;51.110;7.020;2023-05-14T06:28:59;12.00;99.90
8220;DHT22;4151;51.110;7.020;2023-05-14T06:31:24;12.20;99.90
8220;DHT22;4151;51.110;7.020;2023-05-14T06:33:50;12.30;99.90
8220;DHT22;4151;51.110;7.020;2023-05-14T06:36:16;12.40;99.90
8220;DHT22;4151;51.110;7.020;2023-05-14T06:38:41;12.60;99.90
8220;DHT22;4151;51.110;7.020;2023-05-14T06:41:07;12.70;99.90
8220;DHT22;4151;51.110;7.020;2023-05-14T06:43:32;12.80;99.90
8220;DHT22;4151;51.110;7.020;2023-05-14T06:45:58;13.00;99.90
8220;DHT22;4151;51.110;7.020;2023-05-14T06:48:24;13.10;99.90
8220;DHT22;4151;51.110;7.020;2023-05-14T06:50:51;13.10;99.90
8220;DHT22;4151;51.110;7.020;2023-05-14T06:53:17;13.10;99.90
8220;DHT22;4151;51.110;7.020;2023-05-14T06:55:43;13.10;99.90
8220;DHT22;4151;51.110;7.020;2023-05-14T06:58:09;13.10;99.90
8220;DHT22;4151;51.110;7.020;2023-05-14T07:00:34;13.20;99.90
8220;DHT22;4151;51.110;7.020;2023-05-14T07:03:00;13.30;99.90
8220;DHT22;4151;51.110;7.020;2023-05-14T07:05:25;13.50;99.90
8220;DHT22;4151;51.110;7.020;2023-05-14T07:07:51;13.70;99.90
8220;DHT22;4151;51.110;7.020;2023-05-14T07:10:17;13.80;99.90
8220;DHT22;4151;51.110;7.020;2023-05-14T07:12:42;13.80;99.90
8220;DHT22;4151;51.110;7.020;2023-05-14T07:15:08;13.90;99.90
8220;DHT22;4151;51.110;7.020;2023-05-14T07:17:34;14.00;99.90
8220;DHT22;4151;51.110;7.020;2023-05-14T07:20:00;14.20;99.90
8220;DHT22;4151;51.110;7.020;2023-05-14T07:22:25;14.20;99.90
8220;DHT22;4151;51.110;7.020;2023-05-14T07:24:51;14.30;99.90
8220;DHT22;4151;51.110;7.020;2023-05-14T07:27:16;14.40;99.90
8220;DHT22;4151;51.110;7.020;2023-05-14T07:29:42;14.50;99.90
8220;DHT22;4151;51.110;7.020;2023-05-14T07:32:08;14.60;99.90
8220;DHT22;4151;51.110;7.020;2023-05-14T07:34:33;14.80;99.90
8220;DHT22;4151;51.110;7.020;2023-05-14T07:37:00;14.90;99.90
8220;DHT22;4151;51.110;7.020;2023-05-14T07:39:25;14.90;99.90
8220;DHT22;4151;51.110;7.020;2023-05-14T07:41:51;15.00;99.90
8220;DHT22;4151;51.110;7.020;2023-05-14T07:44:19;15.00;99.90
8220;DHT22;4151;51.110;7.020;2023-05-14T07:46:45;15.20;99.90
8220;DHT22;4151;51.110;7.020;2023-05-14T07:49:10;15.20;99.90
8220;DHT22;4151;51.110;7.020;2023-05-14T07:51:36;15.30;99.90
8220;DHT22;4151;51.110;7.020;2023-05-14T07:54:01;15.30;99.90
8220;DHT22;4151;51.110;7.020;2023-05-14T07:56:27;15.30;99.90
8220;DHT22;4151;51.110;7.020;2023-05-14T07:58:52;15.50;99.90
8220;DHT22;4151;51.110;7.020;2023-05-14T08:01:18;15.60;99.90
8220;DHT22;4151;51.110;7.020;2023-05-14T08:03:43;15.70;99.90
8220;DHT22;4151;51.110;7.020;2023-05-14T08:06:10;15.70;99.90
8220;DHT22;4151;51.110;7.020;2023-05-14T08:08:35;15.80;99.90
8220;DHT22;4151;51.110;7.020;2023-05-14T08:11:02;16.00;99.90
8220;DHT22;4151;51.110;7.020;2023-05-14T08:13:28;16.20;99.90
8220;DHT22;4151;51.110;7.020;2023-05-14T08:15:53;16.30;99.90
8220;DHT22;4151;51.110;7.020;2023-05-14T08:18:19;16.30;99.90
8220;DHT22;4151;51.110;7.020;2023-05-14T08:20:45;16.30;99.90
8220;DHT22;4151;51.110;7.020;2023-05-14T08:23:11;16.50;99.90
8220;DHT22;4151;51.110;7.020;2023-05-14T08:25:37;16.70;99.90
8220;DHT22;4151;51.110;7.020;2023-05-14T08:28:02;16.90;99.90
8220;DHT22;4151;51.110;7.020;2023-05-14T08:30:28;16.80;99.90
8220;DHT22;4151;51.110;7.020;2023-05-14T08:32:53;16.90;99.90
8220;DHT22;4151;51.110;7.020;2023-05-14T08:35:19;17.00;99.90
8220;DHT22;4151;51.110;7.020;2023-05-14T08:37:44;17.20;99.90
8220;DHT22;4151;51.110;7.020;2023-05-14T08:40:11;17.30;99.90
8220;DHT22;4151;51.110;7.020;2023-05-14T08:42:39;17.50;99.90
8220;DHT22;4151;51.110;7.020;2023-05-14T08:45:10;17.80;99.90
8220;DHT22;4151;51.110;7.020;2023-05-14T08:47:38;18.00;99.90
8220;DHT22;4151;51.110;7.020;2023-05-14T08:50:05;17.90;99.90
8220;DHT22;4151;51.110;7.020;2023-05-14T08:52:32;18.20;99.90
8220;DHT22;4151;51.110;7.020;2023-05-14T08:54:59;18.30;99.90
8220;DHT22;4151;51.110;7.020;2023-05-14T08:57:25;18.50;99.90
8220;DHT22;4151;51.110;7.020;2023-05-14T08:59:52;18.70;99.90
8220;DHT22;4151;51.110;7.020;2023-05-14T09:02:22;19.00;99.90
8220;DHT22;4151;51.110;7.020;2023-05-14T09:04:52;19.30;99.90
8220;DHT22;4151;51.110;7.020;2023-05-14T09:07:18;19.40;99.90
8220;DHT22;4151;51.110;7.020;2023-05-14T09:09:44;19.70;99.90
8220;DHT22;4151;51.110;7.020;2023-05-14T09:12:10;19.40;99.90
8220;DHT22;4151;51.110;7.020;2023-05-14T09:14:35;19.20;99.90
8220;DHT22;4151;51.110;7.020;2023-05-14T09:17:01;18.90;99.90
8220;DHT22;4151;51.110;7.020;2023-05-14T09:19:27;19.10;99.90
8220;DHT22;4151;51.110;7.020;2023-05-14T09:21:55;19.60;99.90
8220;DHT22;4151;51.110;7.020;2023-05-14T09:24:23;20.30;99.90
8220;DHT22;4151;51.110;7.020;2023-05-14T09:26:53;20.30;99.90
8220;DHT22;4151;51.110;7.020;2023-05-14T09:29:19;20.10;99.90
8220;DHT22;4151;51.110;7.020;2023-05-14T09:31:45;20.20;99.90
8220;DHT22;4151;51.110;7.020;2023-05-14T09:34:11;20.60;99.90
8220;DHT22;4151;51.110;7.020;2023-05-14T09:36:46;21.20;99.90
8220;DHT22;4151;51.110;7.020;2023-05-14T09:39:12;21.60;99.90
8220;DHT22;4151;51.110;7.020;2023-05-14T09:41:37;21.70;99.90
8220;DHT22;4151;51.110;7.020;2023-05-14T09:44:03;22.40;99.90
8220;DHT22;4151;51.110;7.020;2023-05-14T09:46:28;22.30;99.90
8220;DHT22;4151;51.110;7.020;2023-05-14T09:48:55;22.00;99.90
8220;DHT22;4151;51.110;7.020;2023-05-14T09:51:21;22.20;99.90
8220;DHT22;4151;51.110;7.020;2023-05-14T09:53:47;22.20;99.90
8220;DHT22;4151;51.110;7.020;2023-05-14T09:56:13;22.30;99.90
8220;DHT22;4151;51.110;7.020;2023-05-14T09:58:38;22.50;99.90
8220;DHT22;4151;51.110;7.020;2023-05-14T10:01:05;22.40;99.90
8220;DHT22;4151;51.110;7.020;2023-05-14T10:03:31;22.30;99.90
8220;DHT22;4151;51.110;7.020;2023-05-14T10:06:00;22.30;99.90
8220;DHT22;4151;51.110;7.020;2023-05-14T10:08:32;22.20;99.90
8220;DHT22;4151;51.110;7.020;2023-05-14T10:11:02;21.70;99.90
8220;DHT22;4151;51.110;7.020;2023-05-14T10:13:36;21.00;99.90
8220;DHT22;4151;51.110;7.020;2023-05-14T10:16:18;20.70;99.90
8220;DHT22;4151;51.110;7.020;2023-05-14T10:18:49;20.70;99.90
8220;DHT22;4151;51.110;7.020;2023-05-14T10:21:19;21.20;99.90
8220;DHT22;4151;51.110;7.020;2023-05-14T10:23:45;21.70;99.90
8220;DHT22;4151;51.110;7.020;2023-05-14T10:26:12;21.50;99.90
8220;DHT22;4151;51.110;7.020;2023-05-14T10:28:38;21.30;99.90
8220;DHT22;4151;51.110;7.020;2023-05-14T10:31:03;20.80;99.90
8220;DHT22;4151;51.110;7.020;2023-05-14T10:33:29;20.70;99.90
8220;DHT22;4151;51.110;7.020;2023-05-14T10:36:05;20.50;99.90
8220;DHT22;4151;51.110;7.020;2023-05-14T10:38:33;20.80;99.90
8220;DHT22;4151;51.110;7.020;2023-05-14T10:41:09;20.80;99.90
8220;DHT22;4151;51.110;7.020;2023-05-14T10:43:39;20.50;99.90
8220;DHT22;4151;51.110;7.020;2023-05-14T10:46:06;20.40;99.90
8220;DHT22;4151;51.110;7.020;2023-05-14T10:48:32;20.30;99.90
8220;DHT22;4151;51.110;7.020;2023-05-14T10:50:58;20.60;99.90
8220;DHT22;4151;51.110;7.020;2023-05-14T10:53:39;21.10;99.90
8220;DHT22;4151;51.110;7.020;2023-05-14T10:56:12;21.50;99.90
8220;DHT22;4151;51.110;7.020;2023-05-14T10:58:41;21.80;99.90
8220;DHT22;4151;51.110;7.020;2023-05-14T11:01:08;22.20;99.90
8220;DHT22;4151;51.110;7.020;2023-05-14T11:03:42;22.60;99.90
8220;DHT22;4151;51.110;7.020;2023-05-14T11:06:10;22.20;99.90
8220;DHT22;4151;51.110;7.020;2023-05-14T11:08:36;21.50;99.90
8220;DHT22;4151;51.110;7.020;2023-05-14T11:11:02;21.50;99.90
8220;DHT22;4151;51.110;7.020;2023-05-14T11:13:29;21.90;99.90
8220;DHT22;4151;51.110;7.020;2023-05-14T11:15:54;22.50;99.90
8220;DHT22;4151;51.110;7.020;2023-05-14T11:18:31;23.10;99.90
8220;DHT22;4151;51.110;7.020;2023-05-14T11:28:58;25.90;99.90
8220;DHT22;4151;51.110;7.020;2023-05-14T11:31:24;25.50;98.20
8220;DHT22;4151;51.110;7.020;2023-05-14T11:33:51;24.00;99.90
8220;DHT22;4151;51.110;7.020;2023-05-14T11:36:16;24.50;99.90
8220;DHT22;4151;51.110;7.020;2023-05-14T11:38:46;25.60;99.90
8220;DHT22;4151;51.110;7.020;2023-05-14T11:41:13;27.10;99.20
8220;DHT22;4151;51.110;7.020;2023-05-14T11:43:39;27.80;95.20
8220;DHT22;4151;51.110;7.020;2023-05-14T11:46:05;29.50;89.50
8220;DHT22;4151;51.110;7.020;2023-05-14T11:48:31;30.10;74.50
8220;DHT22;4151;51.110;7.020;2023-05-14T11:50:57;29.20;71.70
8220;DHT22;4151;51.110;7.020;2023-05-14T11:53:28;28.30;73.30
8220;DHT22;4151;51.110;7.020;2023-05-14T11:55:54;26.70;74.80
8220;DHT22;4151;51.110;7.020;2023-05-14T11:58:22;26.10;76.00
8220;DHT22;4151;51.110;7.020;2023-05-14T12:00:52;25.10;79.20
8220;DHT22;4151;51.110;7.020;2023-05-14T12:03:19;24.70;80.00
8220;DHT22;4151;51.110;7.020;2023-05-14T12:05:59;23.90;82.60
8220;DHT22;4151;51.110;7.020;2023-05-14T12:08:27;23.50;85.20
8220;DHT22;4151;51.110;7.020;2023-05-14T12:10:53;23.30;84.30
8220;DHT22;4151;51.110;7.020;2023-05-14T12:13:19;23.00;84.80
8220;DHT22;4151;51.110;7.020;2023-05-14T12:15:55;23.20;83.00
8220;DHT22;4151;51.110;7.020;2023-05-14T12:18:23;24.50;84.80
8220;DHT22;4151;51.110;7.020;2023-05-14T12:20:48;26.40;80.80
8220;DHT22;4151;51.110;7.020;2023-05-14T12:23:15;27.30;78.50
8220;DHT22;4151;51.110;7.020;2023-05-14T12:25:51;28.60;77.00
8220;DHT22;4151;51.110;7.020;2023-05-14T12:28:18;29.30;73.30
8220;DHT22;4151;51.110;7.020;2023-05-14T12:30:45;29.80;74.70
8220;DHT22;4151;51.110;7.020;2023-05-14T12:33:11;29.40;73.40
8220;DHT22;4151;51.110;7.020;2023-05-14T12:35:38;29.10;72.90
8220;DHT22;4151;51.110;7.020;2023-05-14T12:38:03;28.80;73.80
8220;DHT22;4151;51.110;7.020;2023-05-14T12:40:29;28.10;73.90
8220;DHT22;4151;51.110;7.020;2023-05-14T12:42:54;27.20;74.40
8220;DHT22;4151;51.110;7.020;2023-05-14T12:45:20;26.70;75.70
8220;DHT22;4151;51.110;7.020;2023-05-14T12:47:46;26.20;75.40
8220;DHT22;4151;51.110;7.020;2023-05-14T12:50:11;26.30;74.80
8220;DHT22;4151;51.110;7.020;2023-05-14T12:52:37;26.70;75.60
8220;DHT22;4151;51.110;7.020;2023-05-14T12:55:03;27.60;72.20
8220;DHT22;4151;51.110;7.020;2023-05-14T12:57:29;28.30;72.90
8220;DHT22;4151;51.110;7.020;2023-05-14T12:59:55;28.90;71.90
8220;DHT22;4151;51.110;7.020;2023-05-14T13:02:21;29.90;71.20
8220;DHT22;4151;51.110;7.020;2023-05-14T13:04:46;31.00;68.00
8220;DHT22;4151;51.110;7.020;2023-05-14T13:07:12;31.00;67.50
8220;DHT22;4151;51.110;7.020;2023-05-14T13:09:38;32.10;66.90
8220;DHT22;4151;51.110;7.020;2023-05-14T13:12:04;33.30;62.50
8220;DHT22;4151;51.110;7.020;2023-05-14T13:14:29;34.20;61.90
8220;DHT22;4151;51.110;7.020;2023-05-14T13:16:55;35.00;60.40
8220;DHT22;4151;51.110;7.020;2023-05-14T13:19:20;34.80;58.50
8220;DHT22;4151;51.110;7.020;2023-05-14T13:21:46;34.30;60.50
8220;DHT22;4151;51.110;7.020;2023-05-14T13:24:11;34.60;60.00
8220;DHT22;4151;51.110;7.020;2023-05-14T13:26:37;34.50;59.00
8220;DHT22;4151;51.110;7.020;2023-05-14T13:29:03;35.00;58.90
8220;DHT22;4151;51.110;7.020;2023-05-14T13:31:29;33.20;61.60
8220;DHT22;4151;51.110;7.020;2023-05-14T13:33:54;32.30;60.30
8220;DHT22;4151;51.110;7.020;2023-05-14T13:36:22;31.00;61.40
8220;DHT22;4151;51.110;7.020;2023-05-14T13:38:48;29.50;63.10
8220;DHT22;4151;51.110;7.020;2023-05-14T13:41:13;27.90;66.30
8220;DHT22;4151;51.110;7.020;2023-05-14T13:43:39;27.10;68.10
8220;DHT22;4151;51.110;7.020;2023-05-14T13:46:05;26.60;69.10
8220;DHT22;4151;51.110;7.020;2023-05-14T13:48:31;27.70;68.80
8220;DHT22;4151;51.110;7.020;2023-05-14T13:50:57;29.30;66.40
8220;DHT22;4151;51.110;7.020;2023-05-14T13:53:24;31.50;63.00
8220;DHT22;4151;51.110;7.020;2023-05-14T13:55:50;32.70;61.70
8220;DHT22;4151;51.110;7.020;2023-05-14T13:58:21;34.30;58.10
8220;DHT22;4151;51.110;7.020;2023-05-14T14:00:47;33.60;60.10
8220;DHT22;4151;51.110;7.020;2023-05-14T14:03:13;34.20;60.80
8220;DHT22;4151;51.110;7.020;2023-05-14T14:05:38;32.50;60.50
8220;DHT22;4151;51.110;7.020;2023-05-14T14:08:04;30.30;62.00
8220;DHT22;4151;51.110;7.020;2023-05-14T14:10:30;29.00;65.40
8220;DHT22;4151;51.110;7.020;2023-05-14T14:12:56;28.00;65.90
8220;DHT22;4151;51.110;7.020;2023-05-14T14:15:21;27.60;67.70
8220;DHT22;4151;51.110;7.020;2023-05-14T14:17:47;27.00;67.50
8220;DHT22;4151;51.110;7.020;2023-05-14T14:20:13;26.90;68.10
8220;DHT22;4151;51.110;7.020;2023-05-14T14:22:39;26.80;68.90
8220;DHT22;4151;51.110;7.020;2023-05-14T14:25:05;26.70;76.60
8220;DHT22;4151;51.110;7.020;2023-05-14T14:27:32;27.10;71.10
8220;DHT22;4151;51.110;7.020;2023-05-14T14:30:04;27.10;69.20
8220;DHT22;4151;51.110;7.020;2023-05-14T14:32:30;26.60;72.90
8220;DHT22;4151;51.110;7.020;2023-05-14T14:34:55;26.30;74.20
8220;DHT22;4151;51.110;7.020;2023-05-14T14:37:21;26.30;73.40
8220;DHT22;4151;51.110;7.020;2023-05-14T14:39:46;26.40;73.80
8220;DHT22;4151;51.110;7.020;2023-05-14T14:42:12;26.60;73.70
8220;DHT22;4151;51.110;7.020;2023-05-14T14:44:38;26.90;73.30
8220;DHT22;4151;51.110;7.020;2023-05-14T14:47:03;28.20;71.80
8220;DHT22;4151;51.110;7.020;2023-05-14T14:49:29;28.80;70.10
8220;DHT22;4151;51.110;7.020;2023-05-14T14:51:55;29.90;67.80
8220;DHT22;4151;51.110;7.020;2023-05-14T14:54:21;31.10;66.70
8220;DHT22;4151;51.110;7.020;2023-05-14T14:56:47;32.20;61.60
8220;DHT22;4151;51.110;7.020;2023-05-14T14:59:13;32.00;62.80
8220;DHT22;4151;51.110;7.020;2023-05-14T15:01:39;31.40;63.30
8220;DHT22;4151;51.110;7.020;2023-05-14T15:04:04;31.30;63.20
8220;DHT22;4151;51.110;7.020;2023-05-14T15:06:30;31.90;61.00
8220;DHT22;4151;51.110;7.020;2023-05-14T15:08:55;32.60;61.00
8220;DHT22;4151;51.110;7.020;2023-05-14T15:11:21;32.50;59.90
8220;DHT22;4151;51.110;7.020;2023-05-14T15:13:46;31.90;58.80
8220;DHT22;4151;51.110;7.020;2023-05-14T15:16:12;30.30;62.00
8220;DHT22;4151;51.110;7.020;2023-05-14T15:18:37;30.10;63.30
8220;DHT22;4151;51.110;7.020;2023-05-14T15:21:03;29.30;64.90
8220;DHT22;4151;51.110;7.020;2023-05-14T15:23:29;28.80;66.30
8220;DHT22;4151;51.110;7.020;2023-05-14T15:25:54;29.20;66.90
8220;DHT22;4151;51.110;7.020;2023-05-14T15:28:20;31.00;65.80
8220;DHT22;4151;51.110;7.020;2023-05-14T15:30:46;32.10;64.40
8220;DHT22;4151;51.110;7.020;2023-05-14T15:33:12;34.10;63.90
8220;DHT22;4151;51.110;7.020;2023-05-14T15:35:42;34.00;62.80
8220;DHT22;4151;51.110;7.020;2023-05-14T15:38:07;33.80;60.30
8220;DHT22;4151;51.110;7.020;2023-05-14T15:40:33;33.30;60.30
8220;DHT22;4151;51.110;7.020;2023-05-14T15:42:59;31.80;61.00
8220;DHT22;4151;51.110;7.020;2023-05-14T15:45:25;30.70;64.00
8220;DHT22;4151;51.110;7.020;2023-05-14T15:47:50;30.40;66.30
8220;DHT22;4151;51.110;7.020;2023-05-14T15:50:16;28.70;64.60
8220;DHT22;4151;51.110;7.020;2023-05-14T15:52:41;27.60;67.60
8220;DHT22;4151;51.110;7.020;2023-05-14T15:55:07;27.00;67.30
8220;DHT22;4151;51.110;7.020;2023-05-14T15:57:33;27.30;68.30
8220;DHT22;4151;51.110;7.020;2023-05-14T15:59:59;27.80;67.80
8220;DHT22;4151;51.110;7.020;2023-05-14T16:02:24;28.20;68.10
8220;DHT22;4151;51.110;7.020;2023-05-14T16:04:50;27.90;68.80
8220;DHT22;4151;51.110;7.020;2023-05-14T16:07:15;27.90;68.50
8220;DHT22;4151;51.110;7.020;2023-05-14T16:09:41;27.80;67.00
8220;DHT22;4151;51.110;7.020;2023-05-14T16:12:07;27.80;67.90
8220;DHT22;4151;51.110;7.020;2023-05-14T16:14:34;27.20;68.80
8220;DHT22;4151;51.110;7.020;2023-05-14T16:17:00;26.70;67.90
8220;DHT22;4151;51.110;7.020;2023-05-14T16:19:28;26.60;69.10
8220;DHT22;4151;51.110;7.020;2023-05-14T16:21:54;26.50;68.10
8220;DHT22;4151;51.110;7.020;2023-05-14T16:24:19;26.20;69.00